createdAt,value
2019-05-23T00:02:37.094Z,19.43
2019-05-23T00:07:02.744Z,18.87
2019-05-23T00:11:47.095Z,19.13
2019-05-23T00:16:03.362Z,18.50
2019-05-23T00:20:10.639Z,17.70
2019-05-23T00:24:17.854Z,18.27
2019-05-23T00:28:24.744Z,18.60
2019-05-23T00:32:46.401Z,20.03
2019-05-23T00:36:54.638Z,20.33
2019-05-23T00:41:02.845Z,19.70
2019-05-23T00:45:12.840Z,20.63
2019-05-23T00:49:20.000Z,21.30
2019-05-23T00:53:28.577Z,18.93
2019-05-23T00:57:36.467Z,20.50
2019-05-23T01:01:44.332Z,20.53
2019-05-23T01:05:53.196Z,19.93
2019-05-23T01:10:02.910Z,19.27
2019-05-23T01:14:09.957Z,19.77
2019-05-23T01:18:17.895Z,20.20
2019-05-23T01:22:26.622Z,20.33
2019-05-23T01:26:33.439Z,19.03
2019-05-23T01:30:43.690Z,19.37
2019-05-23T01:34:50.992Z,19.00
2019-05-23T01:38:57.940Z,19.53
2019-05-23T01:43:05.398Z,19.67
2019-05-23T01:47:13.148Z,18.70
2019-05-23T01:51:20.446Z,19.77
2019-05-23T01:55:27.315Z,19.33
2019-05-23T01:59:34.732Z,20.30
2019-05-23T02:03:41.793Z,19.70
2019-05-23T02:07:49.331Z,18.73
2019-05-23T02:11:56.482Z,18.50
2019-05-23T02:16:03.451Z,19.07
2019-05-23T02:20:11.913Z,18.17
2019-05-23T02:24:18.986Z,18.23
2019-05-23T02:28:27.104Z,17.70
2019-05-23T02:32:34.213Z,18.13
2019-05-23T02:36:41.102Z,18.53
2019-05-23T02:41:05.480Z,18.10
2019-05-23T02:45:18.805Z,18.40
2019-05-23T02:49:27.651Z,18.27
2019-05-23T02:53:37.429Z,17.63
2019-05-23T02:57:47.130Z,17.03
2019-05-23T03:02:48.101Z,18.47
2019-05-23T03:06:56.204Z,17.60
2019-05-23T03:11:17.521Z,18.13
2019-05-23T03:15:27.415Z,17.83
2019-05-23T03:19:48.035Z,17.83
2019-05-23T03:23:59.525Z,17.80
2019-05-23T03:28:09.634Z,18.43
2019-05-23T03:32:38.142Z,19.23
2019-05-23T03:36:41.020Z,19.13
2019-05-23T03:40:48.909Z,19.03
2019-05-23T03:44:55.754Z,17.53
2019-05-23T03:49:04.491Z,18.40
2019-05-23T03:53:12.190Z,17.97
2019-05-23T03:57:25.342Z,19.00
2019-05-23T04:01:46.678Z,18.63
2019-05-23T04:05:40.897Z,18.87
2019-05-23T04:09:47.779Z,18.67
2019-05-23T04:13:55.366Z,17.17
2019-05-23T04:18:02.852Z,19.37
2019-05-23T04:22:10.129Z,19.23
2019-05-23T04:26:17.578Z,17.93
2019-05-23T04:30:24.548Z,18.40
2019-05-23T04:34:31.681Z,19.73
2019-05-23T04:38:38.466Z,18.73
2019-05-23T04:42:46.911Z,18.63
2019-05-23T04:46:54.337Z,18.10
2019-05-23T04:51:01.558Z,19.20
2019-05-23T04:55:11.437Z,18.63
2019-05-23T04:59:18.329Z,20.97
2019-05-23T05:03:26.537Z,21.27
2019-05-23T05:07:33.485Z,19.83
2019-05-23T05:11:40.919Z,19.53
2019-05-23T05:15:52.165Z,20.73
2019-05-23T05:20:52.223Z,19.10
2019-05-23T05:25:02.109Z,18.40
2019-05-23T05:29:09.874Z,18.67
2019-05-23T05:33:17.773Z,18.60
2019-05-23T05:37:24.615Z,18.60
2019-05-23T05:41:33.584Z,20.47
2019-05-23T05:45:40.681Z,19.17
2019-05-23T05:49:47.904Z,20.63
2019-05-23T05:53:55.822Z,19.03
2019-05-23T05:58:02.602Z,20.80
2019-05-23T06:02:12.747Z,18.17
2019-05-23T06:06:27.697Z,19.27
2019-05-23T06:10:35.935Z,19.60
2019-05-23T06:14:46.431Z,20.67
2019-05-23T06:18:51.536Z,20.37
2019-05-23T06:22:59.189Z,19.40
2019-05-23T06:27:10.535Z,20.70
2019-05-23T06:31:39.646Z,19.53
2019-05-23T06:35:46.661Z,20.20
2019-05-23T06:39:53.952Z,19.87
2019-05-23T06:44:01.257Z,20.93
2019-05-23T06:48:08.266Z,20.13
2019-05-23T06:52:15.212Z,20.40
2019-05-23T06:56:22.119Z,21.53
2019-05-23T07:00:30.008Z,21.53
2019-05-23T07:04:37.542Z,21.60
2019-05-23T07:08:44.424Z,20.63
2019-05-23T07:12:51.558Z,21.17
2019-05-23T07:16:58.455Z,20.63
2019-05-23T07:21:08.475Z,21.43
2019-05-23T07:25:15.491Z,22.07
2019-05-23T07:29:22.463Z,20.80
2019-05-23T07:33:30.240Z,22.10
2019-05-23T07:37:37.163Z,21.63
2019-05-23T07:41:43.923Z,21.20
2019-05-23T07:45:55.600Z,22.10
2019-05-23T07:50:02.581Z,21.07
2019-05-23T07:54:15.522Z,21.43
2019-05-23T07:58:22.541Z,20.07
2019-05-23T08:02:34.220Z,20.40
2019-05-23T08:06:41.251Z,20.87
2019-05-23T08:10:48.072Z,18.60
2019-05-23T08:14:54.931Z,19.70
2019-05-23T08:19:01.857Z,19.47
2019-05-23T08:23:08.772Z,19.73
2019-05-23T08:27:15.941Z,19.13
2019-05-23T08:31:22.619Z,18.90
2019-05-23T08:35:29.668Z,19.37
2019-05-23T08:39:37.503Z,19.03
2019-05-23T08:43:44.634Z,16.30
2019-05-23T08:47:51.846Z,17.27
2019-05-23T08:52:00.655Z,14.93
2019-05-23T08:56:18.554Z,14.47
2019-05-23T09:00:17.191Z,13.37
2019-05-23T09:04:24.330Z,12.83
2019-05-23T09:08:32.754Z,13.03
2019-05-23T09:12:40.707Z,11.80
2019-05-23T09:16:48.073Z,13.40
2019-05-23T09:20:55.116Z,13.80
2019-05-23T09:25:02.026Z,14.50
2019-05-23T09:29:10.549Z,13.07
2019-05-23T09:33:17.577Z,13.93
2019-05-23T09:37:24.708Z,13.80
2019-05-23T09:41:32.291Z,15.47
2019-05-23T09:45:39.895Z,14.97
2019-05-23T09:49:53.453Z,16.37
2019-05-23T09:53:55.193Z,17.00
2019-05-23T09:58:02.095Z,17.47
2019-05-23T10:02:09.697Z,18.70
2019-05-23T10:06:16.871Z,18.27
2019-05-23T10:10:24.313Z,18.00
2019-05-23T10:14:33.901Z,20.23
2019-05-23T10:18:42.494Z,19.43
2019-05-23T10:22:49.275Z,18.07
2019-05-23T10:26:56.310Z,17.37
2019-05-23T10:31:04.835Z,18.77
2019-05-23T10:35:12.796Z,18.93
2019-05-23T10:39:21.453Z,17.20
2019-05-23T10:43:28.299Z,18.17
2019-05-23T10:47:35.133Z,17.83
2019-05-23T10:51:42.080Z,17.20
2019-05-23T10:55:48.886Z,17.70
2019-05-23T10:59:55.722Z,17.03
2019-05-23T11:04:26.531Z,15.30
2019-05-23T11:08:34.141Z,14.60
2019-05-23T11:12:41.400Z,15.80
2019-05-23T11:16:48.202Z,14.00
2019-05-23T11:20:55.218Z,14.03
2019-05-23T11:25:03.649Z,12.40
2019-05-23T11:29:10.488Z,11.27
2019-05-23T11:33:21.086Z,11.50
2019-05-23T11:37:28.074Z,10.97
2019-05-23T11:41:35.329Z,10.03
2019-05-23T11:45:53.666Z,8.70
2019-05-23T11:50:00.398Z,11.10
2019-05-23T11:54:09.629Z,10.47
2019-05-23T11:58:17.089Z,10.57
2019-05-23T12:02:34.519Z,10.07
2019-05-23T12:07:01.652Z,9.17
2019-05-23T12:12:25.870Z,9.77
2019-05-23T12:16:43.224Z,10.03
2019-05-23T12:20:59.455Z,9.53
2019-05-23T12:25:23.330Z,10.10
2019-05-23T12:29:22.862Z,9.37
2019-05-23T12:33:30.610Z,9.10
2019-05-23T12:37:37.382Z,9.53
2019-05-23T12:41:44.597Z,9.83
2019-05-23T12:45:51.502Z,11.10
2019-05-23T12:50:03.737Z,9.97
2019-05-23T12:54:10.805Z,9.33
2019-05-23T12:58:18.689Z,9.27
2019-05-23T13:02:27.187Z,8.83
2019-05-23T13:06:33.997Z,9.00
2019-05-23T13:10:40.967Z,8.83
2019-05-23T13:14:54.381Z,9.17
2019-05-23T13:18:59.893Z,9.50
2019-05-23T13:23:07.510Z,10.60
2019-05-23T13:27:16.244Z,9.50
2019-05-23T13:31:24.035Z,9.27
2019-05-23T13:35:31.379Z,9.10
2019-05-23T13:39:39.632Z,10.27
2019-05-23T13:43:46.733Z,9.43
2019-05-23T13:47:54.716Z,9.63
2019-05-23T13:52:03.533Z,10.40
2019-05-23T13:56:10.497Z,9.00
2019-05-23T14:00:21.012Z,9.17
2019-05-23T14:04:28.016Z,8.30
2019-05-23T14:08:36.015Z,9.70
2019-05-23T14:12:42.922Z,8.73
2019-05-23T14:17:07.391Z,8.40
2019-05-23T14:21:14.544Z,8.40
2019-05-23T14:25:22.032Z,8.80
2019-05-23T14:29:30.565Z,8.53
2019-05-23T14:33:50.239Z,9.10
2019-05-23T14:37:58.830Z,9.43
2019-05-23T14:42:16.587Z,9.27
2019-05-23T14:46:25.259Z,8.57
2019-05-23T14:51:03.556Z,9.97
2019-05-23T14:55:13.800Z,9.97
2019-05-23T14:59:20.793Z,9.53
2019-05-23T15:03:29.442Z,8.90
2019-05-23T15:07:36.536Z,9.43
2019-05-23T15:11:43.570Z,9.77
2019-05-23T15:15:50.724Z,9.60
2019-05-23T15:19:57.768Z,10.33
2019-05-23T15:24:04.913Z,10.73
2019-05-23T15:28:12.125Z,10.17
2019-05-23T15:32:18.984Z,9.33
2019-05-23T15:36:25.932Z,9.77
2019-05-23T15:40:32.750Z,9.40
2019-05-23T15:44:39.563Z,10.30
2019-05-23T15:48:46.732Z,10.53
2019-05-23T15:53:02.131Z,8.43
2019-05-23T15:57:18.907Z,10.07
2019-05-23T16:01:33.007Z,9.97
2019-05-23T16:05:40.019Z,11.07
2019-05-23T16:09:47.119Z,11.30
2019-05-23T16:13:54.036Z,10.17
2019-05-23T16:18:00.873Z,9.40
2019-05-23T16:22:08.095Z,9.40
2019-05-23T16:26:14.962Z,9.57
2019-05-23T16:30:22.027Z,8.83
2019-05-23T16:34:29.152Z,8.80
2019-05-23T16:38:39.514Z,10.13
2019-05-23T16:42:46.714Z,9.30
2019-05-23T16:46:53.708Z,9.50
2019-05-23T16:51:03.128Z,8.67
2019-05-23T16:55:17.811Z,10.80
2019-05-23T16:59:38.291Z,10.27
2019-05-23T17:03:57.332Z,30.83
2019-05-23T17:08:31.896Z,10.03
2019-05-23T17:13:05.801Z,10.07
2019-05-23T17:18:00.575Z,9.27
2019-05-23T17:22:02.292Z,9.10
2019-05-23T17:26:18.290Z,9.17
2019-05-23T17:30:43.103Z,9.30
2019-05-23T17:34:49.919Z,11.17
2019-05-23T17:38:57.715Z,10.70
2019-05-23T17:43:06.785Z,9.90
2019-05-23T17:47:19.767Z,8.30
2019-05-23T17:51:26.865Z,10.37
2019-05-23T17:55:34.062Z,9.00
2019-05-23T17:59:41.196Z,8.20
2019-05-23T18:03:48.579Z,9.97
2019-05-23T18:07:58.718Z,9.50
2019-05-23T18:12:11.716Z,10.30
2019-05-23T18:16:20.120Z,9.77
2019-05-23T18:20:28.367Z,10.83
2019-05-23T18:24:35.436Z,10.10
2019-05-23T18:28:43.112Z,9.60
2019-05-23T18:33:18.849Z,9.30
2019-05-23T18:37:35.529Z,10.03
2019-05-23T18:41:42.711Z,10.13
2019-05-23T18:46:24.505Z,10.23
2019-05-23T18:50:38.129Z,8.40
2019-05-23T18:54:45.335Z,8.70
2019-05-23T18:59:05.389Z,9.23
2019-05-23T19:03:13.606Z,9.00
2019-05-23T19:07:20.985Z,9.33
2019-05-23T19:11:37.896Z,9.00
2019-05-23T19:15:45.380Z,10.13
2019-05-23T19:21:10.760Z,10.57
2019-05-23T19:26:27.205Z,11.77
2019-05-23T19:31:26.535Z,13.10
2019-05-23T19:40:59.017Z,12.60
2019-05-23T19:45:17.549Z,12.33
2019-05-23T19:49:30.312Z,12.53
2019-05-23T19:53:50.485Z,13.03
2019-05-23T19:58:08.554Z,13.50
2019-05-23T20:02:29.629Z,19.43
2019-05-23T20:06:40.171Z,15.53
2019-05-23T20:10:57.702Z,13.97
2019-05-23T20:15:15.560Z,14.07
2019-05-23T20:24:56.567Z,14.50
2019-05-23T20:29:03.677Z,14.50
2019-05-23T20:38:22.642Z,15.20
2019-05-23T20:42:46.124Z,13.80
2019-05-23T20:46:55.336Z,14.20
2019-05-23T20:51:21.353Z,14.40
2019-05-23T20:55:28.504Z,14.77
2019-05-23T20:59:36.634Z,15.33
2019-05-23T21:03:45.038Z,23.43
2019-05-23T21:07:52.004Z,16.17
2019-05-23T21:11:58.932Z,14.50
2019-05-23T21:16:06.024Z,14.20
2019-05-23T21:20:12.968Z,12.73
2019-05-23T21:24:19.946Z,12.53
2019-05-23T21:28:26.681Z,12.07
2019-05-23T21:32:33.385Z,11.70
2019-05-23T21:36:41.137Z,12.50
2019-05-23T21:40:48.665Z,12.50
2019-05-23T21:44:55.610Z,12.40
2019-05-23T21:49:04.168Z,13.20
2019-05-23T21:53:11.597Z,12.80
2019-05-23T21:57:18.378Z,11.70
2019-05-23T22:01:43.074Z,11.80
2019-05-23T22:05:49.918Z,12.33
2019-05-23T22:09:57.039Z,13.20
2019-05-23T22:14:04.342Z,13.10
2019-05-23T22:18:12.374Z,12.10
2019-05-23T22:22:19.343Z,12.37
2019-05-23T22:26:26.176Z,14.27
2019-05-23T22:30:33.272Z,13.70
2019-05-23T22:34:47.938Z,12.73
2019-05-23T22:38:55.481Z,12.37
2019-05-23T22:43:02.250Z,12.93
2019-05-23T22:47:09.455Z,14.80
2019-05-23T22:51:16.298Z,15.33
2019-05-23T22:55:24.514Z,16.37
2019-05-23T22:59:31.553Z,17.70
2019-05-23T23:03:38.489Z,17.70
2019-05-23T23:07:45.341Z,18.40
2019-05-23T23:11:52.203Z,16.83
2019-05-23T23:15:59.003Z,17.97
2019-05-23T23:20:06.172Z,19.13
2019-05-23T23:24:13.016Z,18.77
2019-05-23T23:28:19.850Z,20.30
2019-05-23T23:32:26.655Z,20.77
2019-05-23T23:36:33.533Z,20.93
2019-05-23T23:40:40.285Z,18.60
2019-05-23T23:44:46.171Z,18.33
2019-05-23T23:49:11.428Z,17.73
2019-05-23T23:53:35.476Z,18.07
2019-05-23T23:57:59.394Z,18.30
